Time;durP1;ratioP1;P1;durP2;ratioP2;P2;SDS_P1;SDS_P2;PMS_P1;PMS_P2;Temp;Humidity;BMP_temperature;BMP_pressure;BME280_temperature;BME280_humidity;BME280_pressure;Samples;Min_cycle;Max_cycle;Signal;HPM_P1;HPM_P2
2022/04/30 00:00:29;;;;;;;;;;;;;;;12.62;69.01;101407.09;4946022;28;19933;-87
2022/04/30 00:03:03;;;;;;;;;;;;;;;12.69;67.96;101407.31;4969708;28;19922;-89
2022/04/30 00:05:30;;;;;;;;;;;;;;;12.66;67.82;101404.91;4955049;28;19968;-87
2022/04/30 00:07:56;;;;;;;;;;;;;;;12.56;68.33;101414.94;4974811;28;20579;-86
2022/04/30 00:10:24;;;;;;;;;;;;;;;12.49;68.75;101405.78;4978029;28;19997;-87
2022/04/30 00:12:52;;;;;;;;;;;;;;;12.45;69.02;101400.72;4993193;28;19932;-87
2022/04/30 00:15:17;;;;;;;;;;;;;;;12.42;68.86;101403.69;4955844;28;19943;-88
2022/04/30 00:17:43;;;;;;;;;;;;;;;12.43;69.40;101404.53;4945805;28;19933;-87
2022/04/30 00:20:11;;;;;;;;;;;;;;;12.42;69.16;101409.09;4965469;28;19919;-87
2022/04/30 00:22:37;;;;;;;;;;;;;;;12.50;68.78;101399.38;4935115;28;20009;-87
2022/04/30 00:25:07;;;;;;;;;;;;;;;12.51;68.85;101401.94;4957136;28;19926;-88
2022/04/30 00:27:34;;;;;;;;;;;;;;;12.43;69.24;101408.09;4956124;28;19922;-87
2022/04/30 00:30:04;;;;;;;;;;;;;;;12.62;68.32;101407.09;4967602;28;19922;-87
2022/04/30 00:35:27;;;;;;;;;;;;;;;12.41;69.23;101402.00;4985830;28;19926;-95
2022/04/30 00:38:15;;;;;;;;;;;;;;;12.41;69.25;101406.56;4976985;28;20134;-91
2022/04/30 00:40:59;;;;;;;;;;;;;;;12.32;69.80;101394.84;4980726;28;19934;-92
2022/04/30 00:43:46;;;;;;;;;;;;;;;12.22;70.30;101399.44;4970021;28;19937;-94
2022/04/30 00:46:41;;;;;;;;;;;;;;;12.17;70.32;101399.91;4984438;28;19923;-94
2022/04/30 00:49:22;;;;;;;;;;;;;;;12.24;70.06;101401.03;4989131;28;19932;-93
2022/04/30 00:51:48;;;;;;;;;;;;;;;12.15;70.27;101393.84;4984712;28;19957;-91
2022/04/30 00:54:15;;;;;;;;;;;;;;;12.18;70.27;101387.31;4972008;28;20570;-93
2022/04/30 00:56:45;;;;;;;;;;;;;;;11.99;71.03;101391.00;4977370;28;19929;-94
2022/04/30 01:02:29;;;;;;;;;;;;;;;12.18;70.17;101390.00;4983118;28;19934;-94
2022/04/30 01:11:59;;;;;;;;;;;;;;;12.13;70.28;101386.91;4956899;29;19938;-93
2022/04/30 01:14:50;;;;;;;;;;;;;;;12.18;69.71;101384.59;4944123;29;19923;-95
2022/04/30 01:17:49;;;;;;;;;;;;;;;12.09;70.26;101394.44;4897848;29;19925;-95
2022/04/30 01:20:14;;;;;;;;;;;;;;;12.14;70.03;101394.00;4944933;29;19915;-93
2022/04/30 01:23:24;;;;;;;;;;;;;;;11.90;70.69;101391.91;4948426;29;19954;-95
2022/04/30 01:26:24;;;;;;;;;;;;;;;11.72;71.37;101383.75;4901004;29;20321;-93
2022/04/30 01:29:04;;;;;;;;;;;;;;;11.68;71.76;101401.19;4955731;29;19932;-92
2022/04/30 01:39:53;;;;;;;;;;;;;;;11.48;72.19;101387.84;4934329;29;19938;-89
2022/04/30 01:42:22;;;;;;;;;;;;;;;11.54;71.84;101375.59;4936029;29;19930;-92
2022/04/30 01:44:48;;;;;;;;;;;;;;;11.56;71.75;101382.53;4917925;29;19927;-90
2022/04/30 01:47:14;;;;;;;;;;;;;;;11.54;71.57;101389.06;4931764;29;19949;-92
2022/04/30 01:49:43;;;;;;;;;;;;;;;11.50;71.46;101385.00;4917947;29;19943;-94
2022/04/30 01:52:26;;;;;;;;;;;;;;;11.38;71.32;101385.19;4936474;29;19923;-93
2022/04/30 01:54:55;;;;;;;;;;;;;;;11.34;71.08;101383.78;4940867;29;19911;-93
2022/04/30 01:57:30;;;;;;;;;;;;;;;11.27;71.24;101379.16;4929607;29;19933;-92
2022/04/30 02:00:09;;;;;;;;;;;;;;;11.17;71.32;101379.19;4925546;29;19968;-93
2022/04/30 02:02:40;;;;;;;;;;;;;;;11.13;71.36;101378.63;4951203;28;19946;-90
2022/04/30 02:05:07;;;;;;;;;;;;;;;11.17;71.23;101376.50;4946104;29;19961;-92
2022/04/30 02:07:39;;;;;;;;;;;;;;;11.11;71.26;101380.63;4937297;29;20391;-92
2022/04/30 02:10:15;;;;;;;;;;;;;;;11.12;71.25;101382.31;4943656;29;19953;-92
2022/04/30 02:12:50;;;;;;;;;;;;;;;10.96;71.71;101377.56;4919379;29;20417;-91
2022/04/30 02:15:24;;;;;;;;;;;;;;;10.94;71.76;101376.00;4925123;29;20025;-89
2022/04/30 02:17:50;;;;;;;;;;;;;;;10.94;71.54;101376.00;4938316;29;19927;-92
2022/04/30 02:20:22;;;;;;;;;;;;;;;11.02;71.35;101370.72;4924236;29;19907;-94
2022/04/30 02:22:57;;;;;;;;;;;;;;;10.99;71.25;101371.03;4952335;29;19927;-94
2022/04/30 02:25:23;;;;;;;;;;;;;;;10.92;71.43;101372.59;4920121;29;19930;-95
2022/04/30 02:27:51;;;;;;;;;;;;;;;10.85;71.65;101374.19;4941399;29;20025;-94
2022/04/30 02:30:22;;;;;;;;;;;;;;;10.85;71.64;101377.72;4921700;29;20379;-92
2022/04/30 02:33:03;;;;;;;;;;;;;;;10.98;71.09;101369.34;4934651;29;19927;-94
2022/04/30 02:35:44;;;;;;;;;;;;;;;10.84;71.52;101377.84;4938733;29;19929;-94
2022/04/30 02:38:14;;;;;;;;;;;;;;;10.84;71.43;101369.78;4944880;29;19919;-94
2022/04/30 02:40:42;;;;;;;;;;;;;;;10.75;71.43;101375.06;4927335;29;19986;-92
2022/04/30 02:43:26;;;;;;;;;;;;;;;10.67;71.77;101374.06;4930498;29;19950;-94
2022/04/30 02:45:55;;;;;;;;;;;;;;;10.82;71.04;101366.41;4942224;29;19927;-93
2022/04/30 02:48:33;;;;;;;;;;;;;;;10.68;71.43;101365.88;4933510;29;20002;-94
2022/04/30 02:51:00;;;;;;;;;;;;;;;10.67;71.35;101366.00;4952029;29;19931;-92
2022/04/30 02:53:34;;;;;;;;;;;;;;;10.63;71.34;101359.22;4960520;28;19914;-91
2022/04/30 02:56:22;;;;;;;;;;;;;;;10.50;71.67;101359.53;4945990;29;19927;-93
2022/04/30 03:01:39;;;;;;;;;;;;;;;10.46;71.75;101337.44;4943412;29;19929;-94
2022/04/30 03:04:36;;;;;;;;;;;;;;;10.40;71.54;101340.72;4942911;29;19954;-93
2022/04/30 03:07:11;;;;;;;;;;;;;;;10.35;71.68;101345.69;4938335;29;19938;-92
2022/04/30 03:09:47;;;;;;;;;;;;;;;10.31;71.82;101349.66;4937294;29;20025;-92
2022/04/30 03:12:27;;;;;;;;;;;;;;;10.27;71.86;101334.75;4940497;29;20362;-89
2022/04/30 03:14:57;;;;;;;;;;;;;;;10.25;71.82;101328.66;4918515;29;19919;-91
2022/04/30 03:23:00;;;;;;;;;;;;;;;10.46;71.11;101341.97;4951337;29;19947;-91
2022/04/30 03:25:40;;;;;;;;;;;;;;;10.45;71.06;101332.22;4950880;29;19919;-90
2022/04/30 03:28:21;;;;;;;;;;;;;;;10.41;71.16;101341.56;4934493;29;20383;-94
2022/04/30 03:31:01;;;;;;;;;;;;;;;10.47;70.95;101344.53;4934675;28;19990;-90
2022/04/30 03:33:29;;;;;;;;;;;;;;;10.46;70.94;101345.50;4949173;29;19995;-93
2022/04/30 03:35:58;;;;;;;;;;;;;;;10.48;70.75;101350.75;4942618;29;19931;-92
2022/04/30 03:38:39;;;;;;;;;;;;;;;10.54;70.51;101355.56;4952057;29;19934;-92
2022/04/30 03:41:12;;;;;;;;;;;;;;;10.52;70.51;101362.94;4943659;29;19915;-91
2022/04/30 03:43:40;;;;;;;;;;;;;;;10.59;70.18;101357.81;4944437;29;20081;-92
2022/04/30 03:46:07;;;;;;;;;;;;;;;10.67;69.67;101360.63;4940962;29;19930;-88
2022/04/30 03:48:34;;;;;;;;;;;;;;;10.83;68.96;101365.41;4957992;29;19938;-89
2022/04/30 03:51:08;;;;;;;;;;;;;;;10.79;68.81;101367.53;4942474;29;19953;-89
2022/04/30 03:53:35;;;;;;;;;;;;;;;10.80;68.79;101365.72;4956667;28;19930;-88
2022/04/30 03:56:08;;;;;;;;;;;;;;;10.88;68.59;101363.97;4936929;29;19927;-91
2022/04/30 03:58:37;;;;;;;;;;;;;;;10.92;68.37;101368.06;4938374;29;19919;-89
2022/04/30 04:01:06;;;;;;;;;;;;;;;10.98;68.12;101363.97;4953384;29;19926;-91
2022/04/30 04:03:36;;;;;;;;;;;;;;;11.10;67.61;101375.41;4958897;29;19926;-89
2022/04/30 04:06:06;;;;;;;;;;;;;;;11.18;67.29;101376.34;4956095;29;19930;-90
2022/04/30 04:08:35;;;;;;;;;;;;;;;11.16;67.28;101383.72;4940636;29;19922;-90
2022/04/30 04:11:01;;;;;;;;;;;;;;;11.21;66.84;101385.97;4951304;29;19939;-90
2022/04/30 04:18:59;;;;;;;;;;;;;;;11.50;66.25;101396.63;4941926;29;20414;-92
2022/04/30 04:21:24;;;;;;;;;;;;;;;11.52;66.04;101394.63;4935017;29;19923;-90
2022/04/30 04:26:37;;;;;;;;;;;;;;;11.65;65.74;101402.34;4954921;29;19933;-90
2022/04/30 04:29:05;;;;;;;;;;;;;;;11.64;65.50;101405.22;4928078;29;19962;-91
2022/04/30 04:31:34;;;;;;;;;;;;;;;11.62;65.83;101414.28;4947620;29;19930;-91
2022/04/30 04:34:01;;;;;;;;;;;;;;;11.80;65.17;101408.09;4950652;28;19935;-90
2022/04/30 04:36:33;;;;;;;;;;;;;;;12.04;64.26;101403.00;4949679;29;20298;-91
2022/04/30 04:39:04;;;;;;;;;;;;;;;12.04;64.08;101405.69;4939741;29;19911;-89
2022/04/30 04:41:35;;;;;;;;;;;;;;;11.90;64.37;101408.91;4950966;29;20205;-88
2022/04/30 04:44:02;;;;;;;;;;;;;;;12.02;64.04;101418.47;4917979;29;19927;-91
2022/04/30 04:46:48;;;;;;;;;;;;;;;12.19;63.75;101421.34;4930770;29;20427;-90
2022/04/30 04:49:14;;;;;;;;;;;;;;;12.62;62.26;101408.94;4934845;29;19923;-91
2022/04/30 04:51:41;;;;;;;;;;;;;;;12.90;61.24;101398.88;4907390;29;19969;-91
2022/04/30 04:54:10;;;;;;;;;;;;;;;13.05;60.35;101393.72;4939181;29;19934;-91
2022/04/30 04:56:36;;;;;;;;;;;;;;;13.24;59.73;101396.19;4941726;29;19927;-91
2022/04/30 05:02:07;;;;;;;;;;;;;;;13.50;58.83;101388.06;4928536;29;19927;-89
2022/04/30 05:04:39;;;;;;;;;;;;;;;13.51;58.58;101388.94;4941182;29;19926;-93
2022/04/30 05:07:05;;;;;;;;;;;;;;;13.60;58.32;101387.97;4942425;29;19925;-91
2022/04/30 05:09:31;;;;;;;;;;;;;;;13.95;57.28;101383.31;4924312;29;19946;-88
2022/04/30 05:12:01;;;;;;;;;;;;;;;13.86;57.27;101387.00;4906323;29;19923;-90
2022/04/30 05:14:35;;;;;;;;;;;;;;;13.90;57.23;101382.97;4895483;29;19948;-86
2022/04/30 05:17:04;;;;;;;;;;;;;;;14.11;56.83;101377.94;4887426;29;20026;-90
2022/04/30 05:19:30;;;;;;;;;;;;;;;14.46;55.94;101380.50;4927166;29;20057;-92
2022/04/30 05:21:58;;;;;;;;;;;;;;;14.49;55.81;101377.47;4922628;29;19927;-89
2022/04/30 05:24:28;;;;;;;;;;;;;;;14.79;54.58;101373.25;4932120;29;19931;-94
2022/04/30 05:27:00;;;;;;;;;;;;;;;14.78;54.47;101379.69;4932889;28;19924;-90
2022/04/30 05:29:29;;;;;;;;;;;;;;;14.70;54.98;101379.69;4895493;29;19924;-91
2022/04/30 05:31:58;;;;;;;;;;;;;;;14.69;55.16;101367.19;4928134;29;19925;-89
2022/04/30 05:34:35;;;;;;;;;;;;;;;14.80;54.78;101376.78;4923520;29;19914;-88
2022/04/30 05:37:13;;;;;;;;;;;;;;;14.76;54.87;101373.59;4940224;29;19915;-88
2022/04/30 05:39:39;;;;;;;;;;;;;;;15.18;53.89;101380.63;4925024;29;19942;-88
2022/04/30 05:42:13;;;;;;;;;;;;;;;15.23;53.69;101380.09;4934258;29;19935;-88
2022/04/30 05:44:38;;;;;;;;;;;;;;;15.39;52.84;101361.91;4912998;29;19931;-89
2022/04/30 05:47:07;;;;;;;;;;;;;;;15.27;52.92;101374.16;4920548;29;19947;-89
2022/04/30 05:49:34;;;;;;;;;;;;;;;15.24;53.23;101371.81;4938569;29;19994;-89
2022/04/30 05:52:02;;;;;;;;;;;;;;;15.35;53.16;101366.00;4940302;29;20442;-89
2022/04/30 05:54:29;;;;;;;;;;;;;;;15.65;52.29;101359.94;4940325;29;19994;-87
2022/04/30 05:56:56;;;;;;;;;;;;;;;15.41;53.14;101368.00;4922762;29;20011;-89
2022/04/30 05:59:22;;;;;;;;;;;;;;;15.41;53.03;101365.31;4946048;29;19908;-88
2022/04/30 06:01:49;;;;;;;;;;;;;;;15.48;53.19;101367.31;4939348;28;19943;-88
2022/04/30 06:04:19;;;;;;;;;;;;;;;15.46;53.10;101372.06;4941210;29;20101;-90
2022/04/30 06:07:04;;;;;;;;;;;;;;;15.70;52.34;101371.97;4925695;29;19935;-89
2022/04/30 06:09:29;;;;;;;;;;;;;;;15.88;52.37;101363.59;4899242;29;20288;-88
2022/04/30 06:11:59;;;;;;;;;;;;;;;15.97;51.81;101357.09;4925067;29;19983;-89
2022/04/30 06:14:26;;;;;;;;;;;;;;;15.90;51.71;101366.13;4923574;29;19919;-90
2022/04/30 06:17:00;;;;;;;;;;;;;;;15.99;51.81;101365.03;4923993;29;19923;-88
2022/04/30 06:19:28;;;;;;;;;;;;;;;15.93;51.60;101376.59;4927245;29;19919;-90
2022/04/30 06:21:56;;;;;;;;;;;;;;;16.37;51.00;101378.69;4917132;29;20395;-89
2022/04/30 06:24:25;;;;;;;;;;;;;;;16.58;50.43;101386.16;4927256;29;19950;-90
2022/04/30 06:26:55;;;;;;;;;;;;;;;17.18;49.09;101387.94;4938062;29;19935;-89
2022/04/30 06:29:25;;;;;;;;;;;;;;;17.18;49.11;101385.22;4929404;29;19923;-92
2022/04/30 06:31:52;;;;;;;;;;;;;;;17.62;47.94;101378.91;4921203;29;19978;-91
2022/04/30 06:34:19;;;;;;;;;;;;;;;18.02;46.65;101376.69;4925205;29;19927;-91
2022/04/30 06:36:48;;;;;;;;;;;;;;;18.67;45.12;101365.81;4933558;29;19959;-92
2022/04/30 06:39:19;;;;;;;;;;;;;;;18.74;44.23;101383.88;4927143;29;19927;-90
2022/04/30 06:41:46;;;;;;;;;;;;;;;18.71;44.02;101378.00;4912950;29;19945;-90
2022/04/30 06:44:13;;;;;;;;;;;;;;;19.10;43.53;101380.16;4923576;29;19923;-92
2022/04/30 06:46:41;;;;;;;;;;;;;;;18.93;43.64;101381.53;4924244;29;20360;-91
2022/04/30 06:49:10;;;;;;;;;;;;;;;18.95;43.79;101387.63;4916748;29;19927;-92
2022/04/30 06:51:41;;;;;;;;;;;;;;;19.13;43.61;101387.97;4917381;29;20070;-90
2022/04/30 06:59:41;;;;;;;;;;;;;;;19.32;42.57;101388.28;4909878;29;19994;-89
2022/04/30 07:02:18;;;;;;;;;;;;;;;18.94;43.08;101397.69;4920417;29;20015;-89
2022/04/30 07:05:12;;;;;;;;;;;;;;;19.28;42.17;101390.56;4926549;29;19927;-87
2022/04/30 07:07:40;;;;;;;;;;;;;;;19.53;42.27;101388.19;4919662;29;19919;-89
2022/04/30 07:10:18;;;;;;;;;;;;;;;19.49;41.90;101386.91;4905581;29;19979;-91
2022/04/30 07:12:46;;;;;;;;;;;;;;;19.34;42.33;101389.78;4938105;29;20395;-91
2022/04/30 07:15:15;;;;;;;;;;;;;;;19.81;41.42;101384.56;4935929;29;19919;-91
2022/04/30 07:17:43;;;;;;;;;;;;;;;20.03;41.06;101386.09;4929393;29;19930;-91
2022/04/30 07:20:13;;;;;;;;;;;;;;;20.17;40.94;101383.41;4934773;29;20006;-91
2022/04/30 07:22:54;;;;;;;;;;;;;;;20.34;40.47;101378.38;4921912;29;19923;-94
2022/04/30 07:25:53;;;;;;;;;;;;;;;20.13;40.58;101387.59;4936582;29;19935;-93
2022/04/30 07:28:53;;;;;;;;;;;;;;;20.14;41.08;101386.56;4949765;28;19949;-90
2022/04/30 07:31:21;;;;;;;;;;;;;;;20.32;40.46;101389.53;4914721;29;20034;-93
2022/04/30 07:34:04;;;;;;;;;;;;;;;20.51;39.99;101389.75;5086447;23;19910;-92
2022/04/30 07:36:52;;;;;;;;;;;;;;;20.39;40.33;101386.78;4971647;28;19934;-91
2022/04/30 07:39:50;;;;;;;;;;;;;;;21.12;38.92;101384.09;4948168;28;19977;-92
2022/04/30 07:42:41;;;;;;;;;;;;;;;21.32;38.47;101380.44;4968486;28;19923;-89
2022/04/30 07:48:06;;;;;;;;;;;;;;;21.32;38.13;101374.97;5090947;23;19927;-92
2022/04/30 07:50:47;;;;;;;;;;;;;;;21.63;37.62;101394.28;4971975;28;19926;-89
2022/04/30 07:55:55;;;;;;;;;;;;;;;22.41;36.22;101385.03;4969732;28;19949;-89
2022/04/30 07:58:22;;;;;;;;;;;;;;;22.50;36.10;101389.16;4953520;28;20050;-85
2022/04/30 08:00:47;;;;;;;;;;;;;;;23.06;34.94;101392.06;4940182;29;19926;-84
2022/04/30 08:03:14;;;;;;;;;;;;;;;22.79;35.65;101381.34;4952454;28;19930;-85
2022/04/30 08:05:43;;;;;;;;;;;;;;;22.72;36.11;101375.91;4945004;28;19957;-84
2022/04/30 08:08:10;;;;;;;;;;;;;;;23.17;35.55;101372.13;4941630;29;19930;-84
2022/04/30 08:10:38;;;;;;;;;;;;;;;23.69;34.13;101380.78;4918455;29;19982;-84
2022/04/30 08:13:08;;;;;;;;;;;;;;;23.46;34.60;101375.19;4947684;28;19955;-83
2022/04/30 08:15:47;;;;;;;;;;;;;;;24.18;33.34;101378.06;4953615;28;20315;-84
2022/04/30 08:18:27;;;;;;;;;;;;;;;24.50;33.58;101364.91;4946024;28;19970;-84
2022/04/30 08:20:54;;;;;;;;;;;;;;;24.62;32.39;101373.16;4937869;29;20347;-85
2022/04/30 08:23:19;;;;;;;;;;;;;;;25.73;31.13;101373.22;4939140;29;20391;-84
2022/04/30 08:26:10;;;;;;;;;;;;;;;25.80;30.51;101368.41;4947880;29;19921;-91
2022/04/30 08:28:56;;;;;;;;;;;;;;;24.95;31.17;101361.59;4961561;28;19910;-91
2022/04/30 08:32:19;;;;;;;;;;;;;;;23.97;33.31;101365.69;4955262;28;19934;-92
2022/04/30 08:34:46;;;;;;;;;;;;;;;24.14;32.99;101372.22;4943004;29;19930;-89
2022/04/30 08:37:18;;;;;;;;;;;;;;;23.42;33.71;101368.50;4948016;29;19922;-89
2022/04/30 08:39:55;;;;;;;;;;;;;;;23.34;33.91;101364.13;4941944;28;20294;-89
2022/04/30 08:42:35;;;;;;;;;;;;;;;22.80;35.03;101355.59;4919694;29;19929;-89
2022/04/30 08:45:04;;;;;;;;;;;;;;;23.09;34.17;101364.22;4940548;28;19989;-91
2022/04/30 08:47:31;;;;;;;;;;;;;;;22.37;35.51;101359.13;4951537;28;20028;-87
2022/04/30 08:50:06;;;;;;;;;;;;;;;23.34;34.31;101359.50;4959965;28;19915;-90
2022/04/30 08:53:00;;;;;;;;;;;;;;;24.35;32.97;101359.84;4935185;28;19926;-93
2022/04/30 08:55:38;;;;;;;;;;;;;;;23.65;33.45;101362.28;4960401;28;20342;-90
2022/04/30 08:58:04;;;;;;;;;;;;;;;22.53;35.78;101355.84;4925490;29;20377;-90
2022/04/30 09:00:31;;;;;;;;;;;;;;;22.58;36.15;101368.88;4938851;29;19989;-92
2022/04/30 09:03:05;;;;;;;;;;;;;;;23.50;34.33;101357.19;4941283;29;19962;-91
2022/04/30 09:05:40;;;;;;;;;;;;;;;23.12;34.62;101352.78;4940165;29;19922;-91
2022/04/30 09:08:08;;;;;;;;;;;;;;;22.88;35.40;101358.06;4937335;29;20409;-89
2022/04/30 09:10:38;;;;;;;;;;;;;;;23.41;34.44;101358.56;4949330;28;19973;-91
2022/04/30 09:13:12;;;;;;;;;;;;;;;23.16;34.47;101352.09;4923341;29;19938;-89
2022/04/30 09:15:53;;;;;;;;;;;;;;;22.51;35.94;101357.13;4949034;29;20057;-88
2022/04/30 09:18:24;;;;;;;;;;;;;;;21.38;38.10;101347.63;4882102;29;20132;-88
2022/04/30 09:20:51;;;;;;;;;;;;;;;20.83;39.41;101350.66;4898736;29;20018;-88
2022/04/30 09:23:25;;;;;;;;;;;;;;;21.00;39.80;101367.50;4885069;29;19927;-86
2022/04/30 09:26:01;;;;;;;;;;;;;;;20.53;39.74;101369.34;4873903;29;19919;-87
2022/04/30 09:28:37;;;;;;;;;;;;;;;20.20;40.92;101370.16;4913066;29;19924;-88
2022/04/30 09:31:26;;;;;;;;;;;;;;;20.20;40.41;101355.69;4911883;29;19935;-89
2022/04/30 09:40:06;;;;;;;;;;;;;;;19.85;41.33;101369.44;4912987;29;19967;-90
2022/04/30 09:42:51;;;;;;;;;;;;;;;20.08;41.01;101363.63;4897475;29;19920;-87
2022/04/30 09:45:34;;;;;;;;;;;;;;;20.26;41.31;101360.31;4890406;29;19919;-88
2022/04/30 09:48:00;;;;;;;;;;;;;;;19.70;42.66;101360.59;4899847;29;19920;-85
2022/04/30 09:56:18;;;;;;;;;;;;;;;19.98;41.98;101361.31;4954534;28;20401;-86
2022/04/30 09:58:43;;;;;;;;;;;;;;;20.00;42.06;101369.31;4939801;28;20326;-85
2022/04/30 10:01:14;;;;;;;;;;;;;;;19.65;42.98;101366.63;4922969;29;19933;-83
2022/04/30 10:03:42;;;;;;;;;;;;;;;19.89;42.52;101369.91;4929013;28;19929;-87
2022/04/30 10:06:53;;;;;;;;;;;;;;;20.19;41.54;101360.31;4942306;29;19926;-86
2022/04/30 10:09:28;;;;;;;;;;;;;;;20.66;41.28;101371.28;4957133;28;19989;-85
2022/04/30 10:12:00;;;;;;;;;;;;;;;21.32;39.30;101353.94;4921490;29;20024;-86
2022/04/30 10:14:47;;;;;;;;;;;;;;;21.33;39.47;101360.25;4965031;28;19929;-86
2022/04/30 10:17:20;;;;;;;;;;;;;;;21.24;39.13;101365.94;4965806;28;19926;-87
2022/04/30 10:20:04;;;;;;;;;;;;;;;20.96;39.89;101358.03;4957597;28;19973;-87
2022/04/30 10:22:30;;;;;;;;;;;;;;;20.82;39.98;101356.38;4936153;28;19991;-86
2022/04/30 10:24:56;;;;;;;;;;;;;;;20.93;39.65;101350.25;4940575;29;19926;-86
2022/04/30 10:27:21;;;;;;;;;;;;;;;21.11;39.41;101354.22;4948126;28;19914;-88
2022/04/30 10:29:57;;;;;;;;;;;;;;;22.91;36.79;101346.63;4923793;29;20339;-87
2022/04/30 10:32:55;;;;;;;;;;;;;;;22.59;36.20;101336.81;4961665;28;20009;-88
2022/04/30 10:35:28;;;;;;;;;;;;;;;22.93;36.31;101354.63;4943049;29;19919;-86
2022/04/30 10:38:06;;;;;;;;;;;;;;;22.20;37.40;101345.09;4937272;29;19919;-86
2022/04/30 10:41:04;;;;;;;;;;;;;;;21.67;38.20;101340.78;4942970;29;19926;-88
2022/04/30 10:43:37;;;;;;;;;;;;;;;21.25;39.12;101344.91;4959741;28;19981;-87
2022/04/30 10:46:03;;;;;;;;;;;;;;;20.94;39.85;101348.38;4959214;28;20017;-87
2022/04/30 10:48:32;;;;;;;;;;;;;;;20.71;39.93;101335.16;4937187;28;19953;-88
2022/04/30 10:51:03;;;;;;;;;;;;;;;20.71;40.11;101346.91;4941060;29;19918;-89
2022/04/30 10:53:34;;;;;;;;;;;;;;;20.45;40.68;101345.00;4935521;29;19922;-87
2022/04/30 10:56:03;;;;;;;;;;;;;;;20.92;39.98;101347.72;4923451;29;19914;-88
2022/04/30 10:58:30;;;;;;;;;;;;;;;20.60;40.58;101339.34;4939497;29;19945;-87
2022/04/30 11:00:58;;;;;;;;;;;;;;;20.41;40.40;101341.81;4941041;29;19918;-88
2022/04/30 11:03:32;;;;;;;;;;;;;;;20.48;40.86;101341.00;4940155;28;19914;-89
2022/04/30 11:06:03;;;;;;;;;;;;;;;20.65;40.25;101329.47;4939382;29;19982;-88
2022/04/30 11:08:28;;;;;;;;;;;;;;;20.69;39.93;101354.47;4940828;28;19973;-89
2022/04/30 11:10:54;;;;;;;;;;;;;;;20.64;39.23;101346.91;4940695;29;19919;-88
2022/04/30 11:13:25;;;;;;;;;;;;;;;20.60;39.28;101342.06;4924853;29;19919;-87
2022/04/30 11:15:50;;;;;;;;;;;;;;;20.87;38.84;101335.53;4940181;28;19958;-89
2022/04/30 11:18:19;;;;;;;;;;;;;;;20.94;38.32;101342.91;4941614;29;19922;-86
2022/04/30 11:20:45;;;;;;;;;;;;;;;20.83;38.32;101337.00;4956003;28;19918;-89
2022/04/30 11:23:19;;;;;;;;;;;;;;;20.89;38.25;101338.06;4935392;29;19918;-85
2022/04/30 11:25:45;;;;;;;;;;;;;;;20.38;39.39;101339.53;4921538;29;19919;-88
2022/04/30 11:28:12;;;;;;;;;;;;;;;20.22;39.94;101339.94;4921236;29;20466;-88
2022/04/30 11:30:45;;;;;;;;;;;;;;;19.99;40.30;101341.19;4939466;29;20026;-86
2022/04/30 11:33:11;;;;;;;;;;;;;;;20.11;40.17;101332.34;4946912;28;19923;-89
2022/04/30 11:35:39;;;;;;;;;;;;;;;19.80;40.35;101333.75;4929719;28;19923;-88
2022/04/30 11:38:11;;;;;;;;;;;;;;;19.88;40.57;101335.44;4941542;29;19926;-87
2022/04/30 11:40:40;;;;;;;;;;;;;;;20.01;40.61;101325.41;4940052;28;20314;-87
2022/04/30 11:43:05;;;;;;;;;;;;;;;20.05;41.40;101335.94;4941343;29;19915;-88
2022/04/30 11:45:31;;;;;;;;;;;;;;;20.23;40.81;101338.91;4943702;28;20367;-88
2022/04/30 11:47:59;;;;;;;;;;;;;;;20.10;41.16;101319.75;4938189;28;20377;-88
2022/04/30 11:50:31;;;;;;;;;;;;;;;20.20;40.64;101334.66;4939131;29;19926;-91
2022/04/30 11:52:56;;;;;;;;;;;;;;;20.50;40.35;101330.72;4933902;28;19918;-88
2022/04/30 11:55:22;;;;;;;;;;;;;;;20.69;40.01;101324.41;4938140;29;19973;-88
2022/04/30 11:57:47;;;;;;;;;;;;;;;20.93;39.94;101327.53;4924023;29;19923;-89
2022/04/30 12:00:13;;;;;;;;;;;;;;;20.71;40.45;101327.78;4972497;28;19926;-91
2022/04/30 12:02:39;;;;;;;;;;;;;;;20.49;41.03;101334.50;4952508;29;19922;-89
2022/04/30 12:05:08;;;;;;;;;;;;;;;20.66;40.13;101327.59;4936495;29;19977;-88
2022/04/30 12:07:43;;;;;;;;;;;;;;;20.68;39.91;101327.38;4924118;28;19970;-90
2022/04/30 12:10:26;;;;;;;;;;;;;;;20.47;40.26;101328.41;4936520;29;19964;-88
2022/04/30 12:12:54;;;;;;;;;;;;;;;20.21;40.40;101320.00;4938942;28;19942;-88
2022/04/30 12:15:23;;;;;;;;;;;;;;;20.27;40.17;101321.03;4939515;29;20022;-90
2022/04/30 12:24:40;;;;;;;;;;;;;;;19.78;40.58;101319.47;4938303;28;19930;-88
2022/04/30 12:26:05;;;;;;;;;;;;;;;19.28;42.19;101321.56;4938740;29;19982;-89
2022/04/30 12:29:10;;;;;;;;;;;;;;;19.12;42.27;101309.13;4925168;29;19922;-90
2022/04/30 12:31:47;;;;;;;;;;;;;;;18.88;43.07;101314.03;4918906;29;19922;-88
2022/04/30 12:34:19;;;;;;;;;;;;;;;18.72;43.73;101309.69;4934495;28;19960;-90
2022/04/30 12:36:54;;;;;;;;;;;;;;;19.17;42.61;101307.50;4953514;29;19972;-89
2022/04/30 12:39:20;;;;;;;;;;;;;;;19.53;42.46;101314.56;4905428;29;19946;-89
2022/04/30 12:41:45;;;;;;;;;;;;;;;19.61;41.99;101310.81;4932506;29;19918;-90
2022/04/30 12:44:11;;;;;;;;;;;;;;;19.60;41.10;101309.13;4929201;29;20363;-88
2022/04/30 12:46:36;;;;;;;;;;;;;;;19.56;41.24;101310.56;4958153;28;20322;-92
2022/04/30 12:49:07;;;;;;;;;;;;;;;19.67;41.11;101301.81;4941898;28;19926;-89
2022/04/30 12:51:33;;;;;;;;;;;;;;;19.65;41.49;101298.44;4962592;28;19923;-93
2022/04/30 12:54:01;;;;;;;;;;;;;;;19.74;41.13;101299.13;4940367;29;19937;-88
2022/04/30 12:56:35;;;;;;;;;;;;;;;19.82;40.66;101307.13;4941098;29;20001;-96
2022/04/30 12:59:05;;;;;;;;;;;;;;;19.82;40.37;101302.50;4935336;28;19946;-89
2022/04/30 13:01:53;;;;;;;;;;;;;;;19.73;40.15;101308.34;4935389;29;19927;-93
2022/04/30 13:04:20;;;;;;;;;;;;;;;19.85;40.09;101314.03;4955593;28;19923;-93
2022/04/30 13:06:50;;;;;;;;;;;;;;;20.02;39.56;101308.00;4877817;29;20002;-92
2022/04/30 13:14:50;;;;;;;;;;;;;;;19.90;40.05;101317.84;4881705;29;19930;-92
2022/04/30 13:17:15;;;;;;;;;;;;;;;19.87;40.30;101310.06;4828641;29;20027;-90
2022/04/30 13:19:41;;;;;;;;;;;;;;;19.69;42.78;101316.13;4829006;29;20066;-89
2022/04/30 13:22:09;;;;;;;;;;;;;;;19.76;41.71;101310.66;4838771;29;19928;-89
2022/04/30 13:24:34;;;;;;;;;;;;;;;19.68;41.57;101319.00;4825447;29;19928;-93
2022/04/30 13:27:07;;;;;;;;;;;;;;;19.96;40.69;101313.44;4825905;29;19924;-88
2022/04/30 13:29:32;;;;;;;;;;;;;;;20.30;40.29;101317.03;4826608;29;20370;-88
2022/04/30 13:32:00;;;;;;;;;;;;;;;20.35;39.31;101326.31;4828168;29;20397;-88
2022/04/30 13:34:26;;;;;;;;;;;;;;;20.01;39.93;101319.94;4843834;29;19929;-88
2022/04/30 13:37:00;;;;;;;;;;;;;;;19.81;40.38;101332.72;4851643;29;19924;-88
2022/04/30 13:39:32;;;;;;;;;;;;;;;19.45;41.49;101327.53;4848145;29;19925;-89
2022/04/30 13:42:05;;;;;;;;;;;;;;;19.58;41.49;101325.69;4828228;29;20405;-89
2022/04/30 13:44:36;;;;;;;;;;;;;;;19.78;40.76;101320.34;4866256;29;19919;-90
2022/04/30 13:49:59;;;;;;;;;;;;;;;19.78;40.93;101308.56;4910185;29;19911;-93
2022/04/30 13:55:35;;;;;;;;;;;;;;;19.39;42.61;101310.09;4910652;29;19983;-90
2022/04/30 13:58:33;;;;;;;;;;;;;;;19.65;41.89;101301.16;4880022;29;20325;-91
2022/04/30 14:01:16;;;;;;;;;;;;;;;19.39;43.48;101301.91;4884306;29;20359;-91
2022/04/30 14:07:13;;;;;;;;;;;;;;;19.56;42.19;101299.66;4888534;29;19924;-91
2022/04/30 14:09:51;;;;;;;;;;;;;;;19.45;42.58;101303.81;4880370;29;19927;-92
2022/04/30 14:18:49;;;;;;;;;;;;;;;19.10;43.48;101306.59;4849241;29;20000;-91
2022/04/30 14:21:26;;;;;;;;;;;;;;;19.16;43.80;101308.53;4889079;29;20419;-90
2022/04/30 14:23:58;;;;;;;;;;;;;;;19.28;43.53;101305.22;4882199;29;19949;-88
2022/04/30 14:26:26;;;;;;;;;;;;;;;18.72;44.91;101312.41;4877975;29;20026;-86
2022/04/30 14:29:00;;;;;;;;;;;;;;;18.58;45.56;101297.03;4900377;29;19941;-93
2022/04/30 14:31:33;;;;;;;;;;;;;;;18.77;45.70;101304.50;4885570;29;20371;-89
2022/04/30 14:34:21;;;;;;;;;;;;;;;;;;;;;
2022/04/30 14:40:02;;;;;;;;;;;;;;;18.64;45.16;101298.97;4932349;29;19922;-89